createdAt,value
2023-06-08T00:03:40.550Z,4.00
2023-06-08T00:18:42.251Z,4.23
2023-06-08T00:33:43.787Z,3.70
2023-06-08T00:48:45.449Z,4.07
2023-06-08T01:03:46.979Z,3.57
2023-06-08T01:18:48.517Z,3.87
2023-06-08T01:33:50.162Z,3.80
2023-06-08T01:48:51.668Z,3.53
2023-06-08T02:03:53.191Z,3.70
2023-06-08T02:18:54.693Z,3.73
2023-06-08T02:33:56.192Z,3.60
2023-06-08T02:48:57.691Z,3.50
2023-06-08T03:03:59.240Z,3.50
2023-06-08T03:19:00.800Z,3.33
2023-06-08T03:34:02.399Z,3.30
2023-06-08T03:49:04.045Z,3.50
2023-06-08T04:04:05.592Z,3.53
2023-06-08T04:19:07.131Z,3.50
2023-06-08T04:34:08.623Z,3.47
2023-06-08T04:49:10.144Z,3.50
2023-06-08T05:04:11.814Z,3.60
2023-06-08T05:19:13.397Z,3.73
2023-06-08T05:34:14.908Z,3.53
2023-06-08T05:49:16.488Z,4.70
2023-06-08T06:04:31.081Z,6.20
2023-06-08T06:19:38.076Z,4.70
2023-06-08T06:34:39.804Z,6.23
2023-06-08T06:49:41.329Z,5.10
2023-06-08T07:04:42.834Z,4.53
2023-06-08T07:19:44.369Z,5.20
2023-06-08T07:34:46.449Z,5.10
2023-06-08T07:49:48.002Z,5.90
2023-06-08T08:04:49.632Z,5.70
2023-06-08T08:19:51.209Z,5.73
2023-06-08T08:34:52.732Z,5.80
2023-06-08T08:49:54.256Z,5.70
2023-06-08T09:04:55.774Z,5.73
2023-06-08T09:19:57.312Z,5.10
2023-06-08T09:35:01.064Z,5.37
2023-06-08T09:50:04.142Z,5.47
2023-06-08T10:05:06.027Z,5.27
2023-06-08T10:20:07.692Z,5.30
2023-06-08T10:35:09.440Z,4.87
2023-06-08T10:50:11.258Z,5.03
2023-06-08T11:05:13.021Z,4.83
2023-06-08T11:20:14.766Z,4.90
2023-06-08T11:35:16.315Z,4.90
2023-06-08T11:50:17.831Z,5.40
2023-06-08T12:05:20.868Z,4.83
2023-06-08T12:20:23.983Z,5.27
2023-06-08T12:35:25.489Z,5.40
2023-06-08T12:50:27.005Z,5.00
2023-06-08T13:05:28.500Z,5.20
2023-06-08T13:20:30.007Z,5.17
2023-06-08T13:35:31.683Z,5.90
2023-06-08T13:50:33.262Z,5.00
2023-06-08T14:05:34.771Z,5.43
2023-06-08T14:20:36.291Z,5.50
2023-06-08T14:35:37.846Z,5.17
2023-06-08T14:50:39.408Z,5.20
2023-06-08T15:05:40.915Z,5.70
2023-06-08T15:20:42.406Z,5.30
2023-06-08T15:35:43.909Z,5.93
2023-06-08T15:50:45.423Z,5.90
2023-06-08T16:05:48.013Z,5.47
2023-06-08T16:20:49.605Z,5.87
2023-06-08T16:35:53.111Z,5.70
2023-06-08T16:50:55.066Z,5.13
2023-06-08T17:05:56.561Z,5.40
2023-06-08T17:20:58.081Z,5.23
2023-06-08T17:35:59.596Z,5.23
2023-06-08T17:51:01.109Z,5.27
2023-06-08T18:06:15.682Z,5.50
2023-06-08T18:21:24.069Z,5.50
2023-06-08T18:36:25.556Z,5.43
2023-06-08T18:51:27.066Z,5.37
2023-06-08T19:06:28.566Z,5.40
2023-06-08T19:21:30.081Z,5.50
2023-06-08T19:36:31.585Z,4.93
2023-06-08T19:51:33.122Z,5.20
2023-06-08T20:06:34.618Z,5.30
2023-06-08T20:21:36.140Z,4.77
2023-06-08T20:36:37.631Z,5.00
2023-06-08T20:51:39.160Z,4.63
2023-06-08T21:06:40.770Z,4.70
2023-06-08T21:21:42.304Z,4.97
2023-06-08T21:36:43.800Z,4.80
2023-06-08T21:51:45.292Z,4.50
2023-06-08T22:06:46.796Z,4.50
2023-06-08T22:21:48.269Z,4.53
2023-06-08T22:36:50.877Z,3.80
2023-06-08T22:51:52.377Z,4.37
2023-06-08T23:06:53.877Z,3.90
2023-06-08T23:21:55.382Z,4.20
2023-06-08T23:36:56.867Z,4.07
2023-06-08T23:51:58.388Z,3.90
